Time;durP1;ratioP1;P1;durP2;ratioP2;P2;SDS_P1;SDS_P2;PMS_P1;PMS_P2;Temp;Humidity;BMP_temperature;BMP_pressure;BME280_temperature;BME280_humidity;BME280_pressure;Samples;Min_cycle;Max_cycle;Signal;HPM_P1;HPM_P2
2020/12/29 00:00:39;;;;;;;8.52;2.60;;;6.60;91.80;;;;;;5035193;28;20021;-75
2020/12/29 00:03:08;;;;;;;6.40;2.78;;;6.60;91.80;;;;;;5034244;28;20037;-76
2020/12/29 00:05:37;;;;;;;7.15;2.75;;;6.60;91.80;;;;;;5034899;28;20061;-76
2020/12/29 00:08:02;;;;;;;6.13;2.55;;;6.60;91.80;;;;;;5016444;28;20355;-75
2020/12/29 00:10:28;;;;;;;6.57;2.78;;;6.60;91.80;;;;;;5034648;28;20030;-74
2020/12/29 00:12:54;;;;;;;5.82;2.55;;;6.60;91.80;;;;;;5034106;28;20029;-75
2020/12/29 00:15:19;;;;;;;7.75;2.92;;;6.60;91.80;;;;;;5016819;28;20360;-75
2020/12/29 00:17:45;;;;;;;9.93;3.17;;;6.60;91.80;;;;;;5016247;28;20018;-76
2020/12/29 00:20:11;;;;;;;7.22;2.58;;;6.60;91.80;;;;;;5034530;28;20082;-75
2020/12/29 00:22:37;;;;;;;7.32;2.60;;;6.60;91.80;;;;;;5016555;28;20029;-75
2020/12/29 00:25:04;;;;;;;7.68;2.60;;;6.60;91.80;;;;;;5033662;28;20025;-76
2020/12/29 00:27:49;;;;;;;;;;;;;;;;;;;;;
2020/12/29 00:30:14;;;;;;;7.18;2.53;;;6.60;91.80;;;;;;5034854;28;20021;-76
2020/12/29 00:32:40;;;;;;;5.25;2.85;;;6.60;91.80;;;;;;5016413;28;20132;-76
2020/12/29 00:35:06;;;;;;;8.95;3.20;;;6.60;91.90;;;;;;5033667;28;20104;-74
2020/12/29 00:37:32;;;;;;;9.43;3.15;;;6.60;91.90;;;;;;5016144;28;20080;-74
2020/12/29 00:39:58;;;;;;;5.95;2.67;;;6.60;91.90;;;;;;5033278;28;20021;-74
2020/12/29 00:42:24;;;;;;;5.03;2.03;;;6.60;91.90;;;;;;5016334;28;20104;-75
2020/12/29 00:44:49;;;;;;;5.45;2.90;;;6.60;91.90;;;;;;5015675;28;20053;-75
2020/12/29 00:47:17;;;;;;;6.53;2.83;;;6.60;91.90;;;;;;5034134;28;20451;-75
2020/12/29 00:49:43;;;;;;;7.38;3.03;;;6.60;91.90;;;;;;5033900;28;20060;-75
2020/12/29 00:52:08;;;;;;;4.65;2.38;;;6.50;91.90;;;;;;5033385;28;20045;-73
2020/12/29 00:54:34;;;;;;;4.63;2.50;;;6.50;91.90;;;;;;5034003;28;20022;-73
2020/12/29 00:56:59;;;;;;;7.80;2.78;;;6.50;91.90;;;;;;5015583;28;20509;-76
2020/12/29 00:59:25;;;;;;;7.30;3.08;;;6.50;91.90;;;;;;5016068;28;20023;-74
2020/12/29 01:01:57;;;;;;;6.95;3.22;;;6.50;91.90;;;;;;5033235;28;20616;-75
2020/12/29 01:04:26;;;;;;;5.93;2.53;;;6.60;91.90;;;;;;5015890;28;20190;-75
2020/12/29 01:06:52;;;;;;;7.60;2.78;;;6.60;91.90;;;;;;5015415;28;20168;-75
2020/12/29 01:09:18;;;;;;;8.07;2.63;;;6.60;91.90;;;;;;5015911;28;20009;-75
2020/12/29 01:11:43;;;;;;;6.55;2.60;;;6.60;91.90;;;;;;5015687;28;20596;-75
2020/12/29 01:14:09;;;;;;;6.03;2.75;;;6.50;91.90;;;;;;5015232;28;20026;-75
2020/12/29 01:16:35;;;;;;;7.68;2.50;;;6.60;91.90;;;;;;5015720;28;20355;-75
2020/12/29 01:19:00;;;;;;;5.60;2.50;;;6.60;91.90;;;;;;5032975;28;20364;-75
2020/12/29 01:21:26;;;;;;;5.85;2.08;;;6.60;91.90;;;;;;5033080;28;20018;-74
2020/12/29 01:23:52;;;;;;;6.57;2.15;;;6.60;91.90;;;;;;5032723;28;20030;-74
2020/12/29 01:26:24;;;;;;;4.90;2.30;;;6.60;91.90;;;;;;5032815;28;20451;-74
2020/12/29 01:28:51;;;;;;;6.30;2.35;;;6.60;91.90;;;;;;5014860;28;20363;-75
2020/12/29 01:31:30;;;;;;;5.28;2.53;;;6.60;91.90;;;;;;5033216;28;20045;-75
2020/12/29 01:34:00;;;;;;;5.32;2.78;;;6.60;91.90;;;;;;5016011;28;20455;-75
2020/12/29 01:36:27;;;;;;;5.75;2.28;;;6.60;91.90;;;;;;5032590;28;20045;-74
2020/12/29 01:38:54;;;;;;;6.20;2.55;;;6.60;91.90;;;;;;5032481;28;20047;-75
2020/12/29 01:41:21;;;;;;;3.10;2.03;;;6.60;91.90;;;;;;5015410;28;20108;-75
2020/12/29 01:43:48;;;;;;;3.72;2.17;;;6.60;91.90;;;;;;5015174;28;20037;-75
2020/12/29 01:46:14;;;;;;;5.38;2.25;;;6.60;91.90;;;;;;5014733;28;20025;-75
2020/12/29 01:48:40;;;;;;;5.65;2.50;;;6.60;91.90;;;;;;5015210;28;20024;-74
2020/12/29 01:51:07;;;;;;;3.60;1.83;;;6.60;91.90;;;;;;5014648;28;20151;-75
2020/12/29 01:53:33;;;;;;;7.30;2.67;;;6.60;91.90;;;;;;5032751;28;20024;-74
2020/12/29 01:55:59;;;;;;;9.20;2.17;;;6.60;91.90;;;;;;5014364;28;20108;-74
2020/12/29 01:58:25;;;;;;;4.72;2.30;;;6.60;92.00;;;;;;5015018;28;20021;-75
2020/12/29 02:00:51;;;;;;;5.70;2.72;;;6.60;92.00;;;;;;5032507;28;20367;-74
2020/12/29 02:03:17;;;;;;;5.70;2.10;;;6.60;92.00;;;;;;5014831;28;20025;-74
2020/12/29 02:05:47;;;;;;;6.03;2.50;;;6.50;92.00;;;;;;5015006;28;20018;-74
2020/12/29 02:08:19;;;;;;;5.47;2.10;;;6.60;92.00;;;;;;5014369;28;20104;-75
2020/12/29 02:10:44;;;;;;;;;;;6.60;91.90;;;;;;5032603;28;20406;-74
2020/12/29 02:13:10;;;;;;;6.93;2.88;;;6.50;91.90;;;;;;5014180;28;19901;-75
2020/12/29 02:15:36;;;;;;;5.63;2.60;;;6.50;91.90;;;;;;5032347;28;20076;-75
2020/12/29 02:18:02;;;;;;;5.97;2.47;;;6.50;91.90;;;;;;5013969;28;20059;-75
2020/12/29 02:20:28;;;;;;;7.30;3.00;;;6.50;91.90;;;;;;5014705;28;20069;-74
2020/12/29 02:22:54;;;;;;;5.78;2.60;;;6.50;91.90;;;;;;5031679;28;20439;-73
2020/12/29 02:25:19;;;;;;;5.60;3.28;;;6.50;92.10;;;;;;5014517;28;20028;-74
2020/12/29 02:27:47;;;;;;;5.65;2.90;;;6.50;91.80;;;;;;5014495;28;20434;-75
2020/12/29 02:30:17;;;;;;;6.60;2.78;;;6.50;91.80;;;;;;5031666;28;20364;-75
2020/12/29 02:32:43;;;;;;;6.00;2.72;;;6.50;91.80;;;;;;5014535;28;20028;-75
2020/12/29 02:35:11;;;;;;;5.75;2.55;;;6.50;92.10;;;;;;5013712;28;20017;-75
2020/12/29 02:37:37;;;;;;;5.80;2.42;;;6.50;91.80;;;;;;5010173;28;20050;-74
2020/12/29 02:40:04;;;;;;;8.68;3.00;;;6.50;91.80;;;;;;5011779;28;20475;-75
2020/12/29 02:42:30;;;;;;;5.97;2.70;;;6.50;91.80;;;;;;5012315;28;20309;-74
2020/12/29 02:44:55;;;;;;;7.90;3.17;;;6.50;91.80;;;;;;5010427;28;20466;-77
2020/12/29 02:47:21;;;;;;;5.85;2.80;;;6.50;91.80;;;;;;5012474;28;20029;-76
2020/12/29 02:49:47;;;;;;;5.40;2.67;;;6.50;91.80;;;;;;5010972;28;20026;-74
2020/12/29 02:52:12;;;;;;;5.85;3.03;;;6.50;91.80;;;;;;5010482;28;20026;-74
2020/12/29 02:54:38;;;;;;;5.78;2.60;;;6.50;91.80;;;;;;5010940;28;20017;-74
2020/12/29 02:57:03;;;;;;;4.93;2.38;;;6.50;91.70;;;;;;5011292;28;20018;-74
2020/12/29 02:59:30;;;;;;;7.50;2.80;;;6.50;91.70;;;;;;5012280;28;20471;-74
2020/12/29 03:01:56;;;;;;;7.07;3.30;;;6.50;91.70;;;;;;5010236;28;20022;-77
2020/12/29 03:04:22;;;;;;;5.93;2.70;;;6.50;91.70;;;;;;5010615;28;20044;-74
2020/12/29 03:06:48;;;;;;;5.80;2.92;;;6.50;92.10;;;;;;5012373;28;20022;-75
2020/12/29 03:09:15;;;;;;;4.55;2.60;;;6.50;91.80;;;;;;5010235;28;20026;-74
2020/12/29 03:11:41;;;;;;;7.13;3.10;;;6.50;91.80;;;;;;5010891;28;20109;-74
2020/12/29 03:14:08;;;;;;;6.38;2.92;;;6.50;91.80;;;;;;5011639;28;20108;-75
2020/12/29 03:16:34;;;;;;;7.13;3.20;;;6.60;91.80;;;;;;5010736;28;20018;-75
2020/12/29 03:19:01;;;;;;;7.95;3.13;;;6.50;91.80;;;;;;5011078;28;20368;-75
2020/12/29 03:21:27;;;;;;;9.55;3.03;;;6.50;91.80;;;;;;5012001;28;20023;-75
2020/12/29 03:23:52;;;;;;;5.97;3.42;;;6.60;91.80;;;;;;5011629;28;20077;-74
2020/12/29 03:26:18;;;;;;;7.60;2.92;;;6.60;91.80;;;;;;5009900;28;20393;-75
2020/12/29 03:28:44;;;;;;;6.82;3.20;;;6.50;91.70;;;;;;5009829;28;20117;-75
2020/12/29 03:31:11;;;;;;;6.78;2.90;;;6.60;91.70;;;;;;5009298;28;20097;-75
2020/12/29 03:33:37;;;;;;;9.45;4.20;;;6.60;91.70;;;;;;5010670;28;20389;-75
2020/12/29 03:36:03;;;;;;;6.00;2.97;;;6.60;91.70;;;;;;5010812;28;20097;-75
2020/12/29 03:38:29;;;;;;;6.38;3.28;;;6.60;91.70;;;;;;5009217;28;20069;-75
2020/12/29 03:40:55;;;;;;;8.07;3.75;;;6.60;91.70;;;;;;5010973;28;20092;-75
2020/12/29 03:43:21;;;;;;;7.85;2.92;;;6.60;91.70;;;;;;5009974;28;20490;-75
2020/12/29 03:45:48;;;;;;;4.63;2.60;;;6.60;91.80;;;;;;5010543;28;20026;-75
2020/12/29 03:48:16;;;;;;;7.60;3.72;;;6.60;91.70;;;;;;5009531;28;20537;-75
2020/12/29 03:50:42;;;;;;;8.57;3.72;;;6.60;91.70;;;;;;5014218;28;20033;-75
2020/12/29 03:53:09;;;;;;;6.50;3.30;;;6.60;91.70;;;;;;5013650;28;20040;-75
2020/12/29 03:55:36;;;;;;;6.50;2.90;;;6.60;91.70;;;;;;5014738;28;20014;-75
2020/12/29 03:58:02;;;;;;;7.60;3.50;;;6.60;91.70;;;;;;5014517;28;20014;-73
2020/12/29 04:00:28;;;;;;;6.53;2.95;;;6.50;91.60;;;;;;5013587;28;20014;-74
2020/12/29 04:02:53;;;;;;;7.22;3.40;;;6.50;91.60;;;;;;5013565;28;20068;-74
2020/12/29 04:05:19;;;;;;;6.63;3.05;;;6.50;91.70;;;;;;5014536;28;20470;-74
2020/12/29 04:07:46;;;;;;;8.13;3.92;;;6.40;91.70;;;;;;5015069;28;20048;-74
2020/12/29 04:10:12;;;;;;;9.02;3.50;;;6.40;91.80;;;;;;5014593;28;20081;-75
2020/12/29 04:12:38;;;;;;;8.48;4.10;;;6.30;91.80;;;;;;5015328;28;20138;-75
2020/12/29 04:15:05;;;;;;;7.80;4.20;;;6.30;91.80;;;;;;5014125;28;20374;-76
2020/12/29 04:17:38;;;;;;;8.65;3.83;;;6.30;91.80;;;;;;5014937;28;20018;-75
2020/12/29 04:20:06;;;;;;;7.05;3.13;;;6.30;91.80;;;;;;5014308;28;20022;-75
2020/12/29 04:22:37;;;;;;;6.93;3.40;;;6.30;91.90;;;;;;5014708;28;20033;-75
2020/12/29 04:25:05;;;;;;;6.82;3.83;;;6.30;91.80;;;;;;5013632;28;20371;-75
2020/12/29 04:27:31;;;;;;;7.03;3.67;;;6.20;91.80;;;;;;5014984;28;20061;-75
2020/12/29 04:29:56;;;;;;;7.40;3.28;;;6.20;91.90;;;;;;5014884;28;20057;-76
2020/12/29 04:32:22;;;;;;;8.32;3.50;;;6.20;91.90;;;;;;5012760;28;20482;-75
2020/12/29 04:34:48;;;;;;;6.43;3.22;;;6.10;91.90;;;;;;5013421;28;20028;-75
2020/12/29 04:37:14;;;;;;;5.82;3.55;;;6.20;91.90;;;;;;5012666;28;20038;-75
2020/12/29 04:39:40;;;;;;;6.72;3.83;;;6.10;91.90;;;;;;5014551;28;20026;-75
2020/12/29 04:42:11;;;;;;;5.53;3.40;;;6.10;92.00;;;;;;5013811;28;20044;-76
2020/12/29 04:44:42;;;;;;;7.97;3.25;;;6.10;91.90;;;;;;5014707;28;20389;-75
2020/12/29 04:47:08;;;;;;;6.75;3.30;;;6.20;91.90;;;;;;5028943;28;20112;-76
2020/12/29 04:49:34;;;;;;;6.72;3.45;;;6.20;91.90;;;;;;5029627;28;20048;-75
2020/12/29 04:52:04;;;;;;;12.85;4.10;;;6.20;92.10;;;;;;5014292;28;20018;-75
2020/12/29 04:54:35;;;;;;;8.02;3.45;;;6.20;91.80;;;;;;5014452;28;20033;-75
2020/12/29 04:57:02;;;;;;;8.52;3.40;;;6.30;91.70;;;;;;5014049;28;20014;-75
2020/12/29 04:59:29;;;;;;;5.90;3.50;;;6.20;91.70;;;;;;5012291;28;20026;-75
2020/12/29 05:01:56;;;;;;;7.07;3.45;;;6.30;91.70;;;;;;5012419;28;20109;-74
2020/12/29 05:04:22;;;;;;;6.80;3.17;;;6.30;91.60;;;;;;5028571;28;20033;-75
2020/12/29 05:06:49;;;;;;;6.75;3.40;;;6.30;91.60;;;;;;5013986;28;20022;-75
2020/12/29 05:09:17;;;;;;;7.55;3.15;;;6.30;91.60;;;;;;5028588;28;20159;-75
2020/12/29 05:11:43;;;;;;;7.60;3.63;;;6.30;91.50;;;;;;5014005;28;20029;-74
2020/12/29 05:14:08;;;;;;;7.47;4.10;;;6.30;91.50;;;;;;5012116;28;20017;-74
2020/12/29 05:16:41;;;;;;;6.22;3.97;;;6.30;91.50;;;;;;5013940;28;20347;-76
2020/12/29 05:19:12;;;;;;;8.85;4.50;;;6.30;91.60;;;;;;5013298;28;20046;-74
2020/12/29 05:21:39;;;;;;;7.07;3.60;;;6.20;91.60;;;;;;5014062;28;20061;-76
2020/12/29 05:24:15;;;;;;;6.88;3.55;;;6.20;91.70;;;;;;5028771;28;20049;-79
2020/12/29 05:26:43;;;;;;;5.97;3.85;;;6.20;91.70;;;;;;5013729;28;20021;-76
2020/12/29 05:29:14;;;;;;;9.02;3.90;;;6.10;91.70;;;;;;5012988;28;20025;-77
2020/12/29 05:31:41;;;;;;;7.17;3.67;;;6.10;91.70;;;;;;5012678;28;20014;-76
2020/12/29 05:34:07;;;;;;;9.27;4.18;;;6.00;91.70;;;;;;5028319;28;20026;-77
2020/12/29 05:36:37;;;;;;;7.60;4.05;;;6.00;91.70;;;;;;5031118;28;20054;-75
2020/12/29 05:39:06;;;;;;;9.55;3.63;;;6.00;91.80;;;;;;5015583;28;20371;-74
2020/12/29 05:41:40;;;;;;;10.23;4.65;;;6.00;91.80;;;;;;5015303;28;20454;-77
2020/12/29 05:44:07;;;;;;;10.63;4.53;;;6.10;91.80;;;;;;5033136;28;20068;-75
2020/12/29 05:46:33;;;;;;;6.05;3.67;;;6.00;91.70;;;;;;5014861;28;20025;-74
2020/12/29 05:49:00;;;;;;;7.57;3.25;;;6.00;91.70;;;;;;5014845;28;20016;-74
2020/12/29 05:51:26;;;;;;;7.85;3.70;;;6.10;91.70;;;;;;5014537;28;20014;-75
2020/12/29 05:54:01;;;;;;;7.72;3.33;;;6.20;91.70;;;;;;5032893;28;20026;-74
2020/12/29 05:56:32;;;;;;;7.65;3.78;;;6.30;91.70;;;;;;5014421;28;20013;-74
2020/12/29 05:58:59;;;;;;;6.85;3.42;;;6.30;91.60;;;;;;5015021;28;20022;-74
2020/12/29 06:01:47;;;;;;;10.60;4.40;;;6.20;91.60;;;;;;5014491;28;20104;-74
2020/12/29 06:04:13;;;;;;;8.45;4.47;;;6.20;91.60;;;;;;5030727;28;20363;-74
2020/12/29 06:06:41;;;;;;;12.55;4.85;;;6.20;91.70;;;;;;5014732;28;20017;-74
2020/12/29 06:09:12;;;;;;;8.63;3.63;;;6.20;91.70;;;;;;5014829;28;20104;-74
2020/12/29 06:11:41;;;;;;;10.57;4.63;;;6.30;91.70;;;;;;5014715;28;20101;-75
2020/12/29 06:14:11;;;;;;;7.95;3.95;;;6.20;91.70;;;;;;5014980;28;20032;-75
2020/12/29 06:16:39;;;;;;;9.75;4.13;;;6.20;91.70;;;;;;5032446;28;20024;-75
2020/12/29 06:19:20;;;;;;;12.50;4.90;;;6.20;91.70;;;;;;5032406;28;20041;-74
2020/12/29 06:22:07;;;;;;;9.63;4.45;;;6.20;91.80;;;;;;5032247;28;20014;-74
2020/12/29 06:24:36;;;;;;;15.85;3.92;;;6.20;91.80;;;;;;5046762;28;20029;-75
2020/12/29 06:27:04;;;;;;;9.45;4.80;;;6.10;91.80;;;;;;5032252;28;20488;-74
2020/12/29 06:29:41;;;;;;;9.90;3.40;;;6.10;91.80;;;;;;5013880;28;20048;-74
2020/12/29 06:32:14;;;;;;;9.23;4.63;;;6.20;91.80;;;;;;5014274;28;20027;-74
2020/12/29 06:34:41;;;;;;;10.32;4.97;;;6.20;91.80;;;;;;5032133;28;20022;-75
2020/12/29 06:37:35;;;;;;;7.35;4.00;;;6.20;91.80;;;;;;5032226;28;20049;-75
2020/12/29 06:40:06;;;;;;;11.40;5.40;;;6.20;91.80;;;;;;5032271;28;20022;-75
2020/12/29 06:42:34;;;;;;;11.05;4.93;;;6.20;91.80;;;;;;5013637;28;20030;-75
2020/12/29 06:45:04;;;;;;;14.98;5.22;;;6.10;91.90;;;;;;5014379;28;20017;-73
2020/12/29 06:47:30;;;;;;;13.85;5.70;;;6.10;91.90;;;;;;5011163;28;20018;-73
2020/12/29 06:49:56;;;;;;;14.18;5.43;;;6.10;91.90;;;;;;5029432;28;20665;-73
2020/12/29 06:52:24;;;;;;;10.35;4.90;;;6.10;91.80;;;;;;5011459;28;20018;-75
2020/12/29 06:54:58;;;;;;;13.80;4.93;;;6.20;91.90;;;;;;5029755;28;20072;-74
2020/12/29 06:57:44;;;;;;;15.23;5.35;;;6.20;91.90;;;;;;5028960;28;20095;-74
2020/12/29 07:00:10;;;;;;;11.30;4.75;;;6.20;91.90;;;;;;5029517;28;20029;-74
2020/12/29 07:02:36;;;;;;;12.50;5.05;;;6.10;91.90;;;;;;5028995;28;20083;-74
2020/12/29 07:05:12;;;;;;;10.80;3.80;;;6.10;91.90;;;;;;5011857;28;20026;-74
2020/12/29 07:07:53;;;;;;;12.80;5.00;;;6.20;91.80;;;;;;5029682;28;20506;-74
2020/12/29 07:10:19;;;;;;;13.57;5.07;;;6.20;91.90;;;;;;5011314;28;20013;-74
2020/12/29 07:12:54;;;;;;;12.82;4.82;;;6.10;91.90;;;;;;5030942;28;20018;-76
2020/12/29 07:15:22;;;;;;;10.88;5.15;;;6.20;92.00;;;;;;5013512;28;20369;-76
2020/12/29 07:18:02;;;;;;;11.40;4.82;;;6.20;92.00;;;;;;5013731;28;20018;-75
2020/12/29 07:20:40;;;;;;;11.60;4.43;;;6.20;92.00;;;;;;5031003;28;20021;-78
2020/12/29 07:23:08;;;;;;;11.60;4.68;;;6.10;92.00;;;;;;5032299;28;20088;-77
2020/12/29 07:25:35;;;;;;;13.45;5.43;;;6.10;92.00;;;;;;5017264;28;20060;-77
2020/12/29 07:28:06;;;;;;;11.85;4.70;;;6.00;92.00;;;;;;5035666;28;20025;-76
2020/12/29 07:30:34;;;;;;;11.30;4.70;;;6.00;92.10;;;;;;5035147;28;20041;-76
2020/12/29 07:33:02;;;;;;;11.38;4.68;;;6.00;92.10;;;;;;5018186;28;20048;-76
2020/12/29 07:35:31;;;;;;;9.65;3.83;;;6.00;92.10;;;;;;5034967;28;20469;-76
2020/12/29 07:38:16;;;;;;;10.35;4.15;;;6.00;92.10;;;;;;5017512;28;20168;-76
2020/12/29 07:40:41;;;;;;;8.57;4.07;;;6.00;92.10;;;;;;5017907;28;20021;-77
2020/12/29 07:43:08;;;;;;;9.02;3.20;;;5.90;92.20;;;;;;5035563;28;20359;-75
2020/12/29 07:45:34;;;;;;;8.60;3.17;;;5.90;92.20;;;;;;5034516;28;20037;-76
2020/12/29 07:48:01;;;;;;;8.57;3.28;;;5.80;92.50;;;;;;5035181;28;20025;-75
2020/12/29 07:50:28;;;;;;;6.88;2.95;;;5.80;92.30;;;;;;5016713;28;20017;-76
2020/12/29 07:53:05;;;;;;;7.65;3.28;;;5.80;92.30;;;;;;5035166;28;20454;-77
2020/12/29 07:55:31;;;;;;;9.85;3.72;;;5.80;92.30;;;;;;5016811;28;20473;-76
2020/12/29 07:58:01;;;;;;;11.18;3.22;;;5.70;92.30;;;;;;5035027;28;20021;-76
2020/12/29 08:00:26;;;;;;;9.93;4.05;;;5.70;92.30;;;;;;5034661;28;20013;-76
2020/12/29 08:02:53;;;;;;;8.90;3.53;;;5.70;92.30;;;;;;5034745;28;20039;-75
2020/12/29 08:05:23;;;;;;;7.63;3.75;;;5.70;92.40;;;;;;5016803;28;20064;-77
2020/12/29 08:08:00;;;;;;;9.50;3.47;;;5.70;92.40;;;;;;5017394;28;20013;-76
2020/12/29 08:10:34;;;;;;;8.25;3.67;;;5.70;92.40;;;;;;5034266;28;20029;-76
2020/12/29 08:13:08;;;;;;;8.55;3.97;;;5.60;92.40;;;;;;5050623;28;20104;-76
2020/12/29 08:15:36;;;;;;;12.60;3.47;;;5.60;92.50;;;;;;5034448;28;20083;-76
2020/12/29 08:18:10;;;;;;;10.85;4.47;;;5.60;92.50;;;;;;5017133;28;20374;-76
2020/12/29 08:20:58;;;;;;;10.55;5.00;;;5.60;92.50;;;;;;5016352;28;20014;-76
2020/12/29 08:23:28;;;;;;;10.48;3.53;;;5.60;92.60;;;;;;5016295;28;20030;-75
2020/12/29 08:25:59;;;;;;;13.85;4.53;;;5.50;92.60;;;;;;5033374;28;20018;-75
2020/12/29 08:28:26;;;;;;;12.88;4.75;;;5.50;92.70;;;;;;5015998;28;20014;-76
2020/12/29 08:30:54;;;;;;;14.00;5.50;;;5.40;92.70;;;;;;5016944;28;20130;-76
2020/12/29 08:33:22;;;;;;;13.75;5.30;;;5.40;92.60;;;;;;5034068;28;20462;-80
2020/12/29 08:35:53;;;;;;;10.88;4.32;;;5.40;92.70;;;;;;5033273;28;20098;-76
2020/12/29 08:38:31;;;;;;;14.60;6.00;;;5.40;92.70;;;;;;5016466;28;20479;-76
2020/12/29 08:41:08;;;;;;;18.80;5.55;;;5.30;92.70;;;;;;5034366;28;20092;-77
2020/12/29 08:43:41;;;;;;;9.85;4.03;;;5.30;92.80;;;;;;5049097;28;20026;-76
2020/12/29 08:46:08;;;;;;;13.15;4.03;;;5.30;92.80;;;;;;5016434;28;20018;-77
2020/12/29 08:48:34;;;;;;;15.70;4.60;;;5.30;92.80;;;;;;5015808;28;20068;-77
2020/12/29 08:51:15;;;;;;;17.58;4.95;;;5.30;92.80;;;;;;5016501;28;20044;-76
2020/12/29 08:53:40;;;;;;;15.90;4.78;;;5.30;92.80;;;;;;5015881;28;20505;-76
2020/12/29 08:56:26;;;;;;;9.45;4.72;;;5.30;92.70;;;;;;5016337;28;20473;-76
2020/12/29 08:58:53;;;;;;;9.90;3.95;;;5.40;92.70;;;;;;5033886;28;20097;-76
2020/12/29 09:01:40;;;;;;;10.48;4.22;;;5.30;92.80;;;;;;5016413;28;20032;-78
2020/12/29 09:04:21;;;;;;;8.82;3.13;;;5.40;92.80;;;;;;5033998;28;20030;-77
2020/12/29 09:07:03;;;;;;;12.20;4.03;;;5.40;92.80;;;;;;5049308;28;20043;-77
2020/12/29 09:09:32;;;;;;;8.23;3.45;;;5.30;92.80;;;;;;5033283;28;20017;-78
2020/12/29 09:12:12;;;;;;;13.10;3.40;;;5.30;92.90;;;;;;5016331;28;20048;-77
2020/12/29 09:14:49;;;;;;;11.27;2.90;;;5.30;92.90;;;;;;5032004;28;20014;-78
2020/12/29 09:17:16;;;;;;;12.70;5.47;;;5.30;93.00;;;;;;5033662;28;20028;-77
2020/12/29 09:19:42;;;;;;;13.52;4.70;;;5.30;93.00;;;;;;5015589;28;20079;-78
2020/12/29 09:22:12;;;;;;;11.90;3.90;;;5.30;93.00;;;;;;5015911;28;20021;-77
2020/12/29 09:24:53;;;;;;;9.10;3.53;;;5.30;93.00;;;;;;5032617;28;20051;-77
2020/12/29 09:27:33;;;;;;;6.93;2.90;;;5.40;93.00;;;;;;5033571;28;20014;-77
2020/12/29 09:30:12;;;;;;;13.88;4.05;;;5.30;93.00;;;;;;5015757;28;20053;-77
2020/12/29 09:32:38;;;;;;;10.23;3.78;;;5.30;93.00;;;;;;5032744;28;20026;-76
2020/12/29 09:35:27;;;;;;;10.80;3.92;;;5.30;93.00;;;;;;5033207;28;20093;-77
2020/12/29 09:37:54;;;;;;;9.48;4.25;;;5.30;93.00;;;;;;5011908;28;20382;-77
2020/12/29 09:40:20;;;;;;;9.73;4.15;;;5.30;93.10;;;;;;5013846;28;20037;-77
2020/12/29 09:42:45;;;;;;;14.10;4.97;;;5.20;93.10;;;;;;5011452;28;20014;-77
2020/12/29 09:45:11;;;;;;;14.75;4.68;;;5.20;93.20;;;;;;5013466;28;20076;-77
2020/12/29 09:47:37;;;;;;;11.20;4.95;;;5.20;93.50;;;;;;5011191;28;20026;-77
2020/12/29 09:50:03;;;;;;;15.07;5.70;;;5.20;93.20;;;;;;5013446;28;20451;-76
2020/12/29 09:52:30;;;;;;;18.23;5.47;;;5.30;93.20;;;;;;5011229;28;20048;-77
2020/12/29 09:54:55;;;;;;;17.30;6.07;;;5.30;93.20;;;;;;5011889;28;20017;-75
2020/12/29 09:57:21;;;;;;;15.23;5.03;;;5.20;93.20;;;;;;5011797;28;20021;-77
2020/12/29 09:59:47;;;;;;;10.52;4.35;;;5.20;93.20;;;;;;5012265;28;20018;-76
2020/12/29 10:02:12;;;;;;;11.57;4.00;;;5.30;93.20;;;;;;5012830;28;20022;-76
2020/12/29 10:04:38;;;;;;;13.45;4.38;;;5.30;93.20;;;;;;5012291;28;20034;-76
2020/12/29 10:07:03;;;;;;;12.68;4.43;;;5.30;93.20;;;;;;5011611;28;20018;-75
2020/12/29 10:09:29;;;;;;;14.25;4.45;;;5.30;93.20;;;;;;5011046;28;20032;-76
2020/12/29 10:11:55;;;;;;;12.02;4.43;;;5.30;93.20;;;;;;5011671;28;20022;-76
2020/12/29 10:14:20;;;;;;;14.45;4.80;;;5.40;93.20;;;;;;5011616;28;20022;-76
2020/12/29 10:16:46;;;;;;;13.00;4.38;;;5.40;93.20;;;;;;5010961;28;20119;-76
2020/12/29 10:19:11;;;;;;;14.93;4.25;;;5.40;93.20;;;;;;5012785;28;20022;-76
2020/12/29 10:21:37;;;;;;;9.70;4.38;;;5.40;93.10;;;;;;5012334;28;20072;-77
2020/12/29 10:24:02;;;;;;;10.15;3.63;;;5.40;93.10;;;;;;5011254;28;20061;-77
2020/12/29 10:26:28;;;;;;;9.38;3.67;;;5.40;93.20;;;;;;5011804;28;20212;-77
2020/12/29 10:28:54;;;;;;;8.82;3.33;;;5.50;93.20;;;;;;5011160;28;20546;-77
2020/12/29 10:31:19;;;;;;;12.25;4.72;;;5.50;93.20;;;;;;5012251;28;20026;-77
2020/12/29 10:33:45;;;;;;;11.48;4.00;;;5.40;93.20;;;;;;5011945;28;20041;-77
2020/12/29 10:36:11;;;;;;;10.07;3.20;;;5.40;93.30;;;;;;5013094;28;20020;-77
2020/12/29 10:38:36;;;;;;;12.77;3.95;;;5.40;93.30;;;;;;5010542;28;20133;-76
2020/12/29 10:41:03;;;;;;;9.90;4.10;;;5.40;93.30;;;;;;5011415;28;20069;-76
2020/12/29 10:43:28;;;;;;;12.43;4.38;;;5.40;93.30;;;;;;5012471;28;20489;-76
2020/12/29 10:45:54;;;;;;;14.52;4.80;;;5.50;93.40;;;;;;5011069;28;20454;-77
2020/12/29 10:48:19;;;;;;;14.27;3.83;;;5.50;93.30;;;;;;5011225;28;20026;-76
2020/12/29 10:50:45;;;;;;;11.07;3.72;;;5.50;93.30;;;;;;5013147;28;20525;-76
2020/12/29 10:53:11;;;;;;;10.38;3.95;;;5.60;93.40;;;;;;5011075;28;20060;-77
2020/12/29 10:55:37;;;;;;;11.75;3.70;;;5.60;93.40;;;;;;5010281;28;20072;-77
2020/12/29 10:58:03;;;;;;;13.80;5.32;;;5.60;93.40;;;;;;5010585;28;20026;-77
2020/12/29 11:00:28;;;;;;;13.90;4.47;;;5.60;93.30;;;;;;5012660;28;20053;-76
2020/12/29 11:02:54;;;;;;;11.02;4.18;;;5.60;93.30;;;;;;5010239;28;20076;-76
2020/12/29 11:05:19;;;;;;;15.60;6.00;;;5.60;93.30;;;;;;5012995;28;20030;-77
2020/12/29 11:07:45;;;;;;;13.30;5.07;;;5.60;93.30;;;;;;5010372;28;20349;-75
2020/12/29 11:10:10;;;;;;;13.15;5.53;;;5.60;93.30;;;;;;5012123;28;20117;-76
2020/12/29 11:12:36;;;;;;;14.80;5.32;;;5.60;93.30;;;;;;5010451;28;20439;-76
2020/12/29 11:15:02;;;;;;;20.20;6.70;;;5.60;93.40;;;;;;5010980;28;20095;-76
2020/12/29 11:17:28;;;;;;;15.63;5.53;;;5.60;93.50;;;;;;5012166;28;20025;-77
2020/12/29 11:19:54;;;;;;;17.58;5.63;;;5.60;93.50;;;;;;5010337;28;20018;-77
2020/12/29 11:22:19;;;;;;;12.57;5.60;;;5.50;93.50;;;;;;5011033;28;20362;-77
2020/12/29 11:24:45;;;;;;;18.92;5.95;;;5.50;93.50;;;;;;5010228;28;20018;-77
2020/12/29 11:27:11;;;;;;;15.63;6.20;;;5.50;93.60;;;;;;5012398;28;20032;-76
2020/12/29 11:29:36;;;;;;;15.45;5.57;;;5.40;93.60;;;;;;5010107;28;20402;-77
2020/12/29 11:32:02;;;;;;;16.38;5.65;;;5.50;93.70;;;;;;5012075;28;20061;-76
2020/12/29 11:34:28;;;;;;;12.55;4.60;;;5.50;93.60;;;;;;5012110;28;20025;-75
2020/12/29 11:36:53;;;;;;;14.90;5.47;;;5.60;93.60;;;;;;5014810;28;20042;-77
2020/12/29 11:39:19;;;;;;;13.70;6.20;;;5.60;93.50;;;;;;5031527;28;20022;-77
2020/12/29 11:41:52;;;;;;;12.40;4.88;;;5.60;93.50;;;;;;5046179;28;20025;-75
2020/12/29 11:44:18;;;;;;;17.17;5.57;;;5.70;93.50;;;;;;5014275;28;20366;-75
2020/12/29 11:46:44;;;;;;;11.05;4.55;;;5.70;93.40;;;;;;5031238;28;20477;-76
2020/12/29 11:49:10;;;;;;;13.73;5.07;;;5.70;93.40;;;;;;5014340;28;20033;-76
2020/12/29 11:51:35;;;;;;;14.73;5.60;;;5.70;93.30;;;;;;5046520;28;20017;-77
2020/12/29 11:54:01;;;;;;;13.95;4.55;;;5.70;93.40;;;;;;5047524;28;20013;-76
2020/12/29 11:56:26;;;;;;;11.25;3.65;;;5.70;93.30;;;;;;5031990;28;20022;-76
2020/12/29 11:58:52;;;;;;;16.25;4.30;;;5.70;93.30;;;;;;5032228;28;20462;-75
2020/12/29 12:01:17;;;;;;;13.55;5.60;;;5.70;93.30;;;;;;5032014;28;20029;-76
2020/12/29 12:03:43;;;;;;;17.38;5.05;;;5.80;93.30;;;;;;5045952;28;20358;-76
2020/12/29 12:06:09;;;;;;;15.10;5.13;;;5.80;93.30;;;;;;5031339;28;20030;-76
2020/12/29 12:08:34;;;;;;;15.73;5.72;;;5.80;93.20;;;;;;5013544;28;20061;-74
2020/12/29 12:11:00;;;;;;;16.85;5.75;;;5.90;93.20;;;;;;5034546;28;20354;-75
2020/12/29 12:13:25;;;;;;;12.50;4.43;;;5.90;93.10;;;;;;5017188;28;20025;-75
2020/12/29 12:15:51;;;;;;;13.73;5.07;;;5.90;93.10;;;;;;5016420;28;20021;-76
2020/12/29 12:18:19;;;;;;;16.05;6.10;;;6.00;93.10;;;;;;5050087;28;20013;-76
2020/12/29 12:20:48;;;;;;;18.20;6.30;;;6.00;93.00;;;;;;5016275;28;20045;-75
2020/12/29 12:23:14;;;;;;;16.70;6.47;;;6.00;93.10;;;;;;5034784;28;20465;-75
2020/12/29 12:25:39;;;;;;;15.18;6.15;;;6.00;93.00;;;;;;5016479;28;20025;-76
2020/12/29 12:28:05;;;;;;;14.68;5.05;;;6.10;93.30;;;;;;5049797;28;20340;-75
2020/12/29 12:30:31;;;;;;;19.70;6.13;;;6.10;93.00;;;;;;5034330;28;20041;-76
2020/12/29 12:32:56;;;;;;;17.65;5.53;;;6.10;92.90;;;;;;5034001;28;20638;-76
2020/12/29 12:35:22;;;;;;;19.15;7.57;;;6.20;92.90;;;;;;5016543;28;20031;-76
2020/12/29 12:37:48;;;;;;;16.95;6.60;;;6.20;92.90;;;;;;5033476;28;20077;-76
2020/12/29 12:40:13;;;;;;;25.63;8.80;;;6.20;93.00;;;;;;5034795;28;20057;-75
2020/12/29 12:42:39;;;;;;;19.25;7.05;;;6.20;93.00;;;;;;5048988;28;20104;-77
2020/12/29 12:45:05;;;;;;;17.42;6.60;;;6.20;92.90;;;;;;5034127;28;20451;-77
2020/12/29 12:47:30;;;;;;;20.13;6.90;;;6.30;92.90;;;;;;5034972;28;20018;-76
2020/12/29 12:49:56;;;;;;;25.60;8.07;;;6.30;92.90;;;;;;5016120;28;20285;-76
2020/12/29 12:52:21;;;;;;;27.35;8.32;;;6.30;92.90;;;;;;5034367;28;20096;-76
2020/12/29 12:54:47;;;;;;;17.55;7.82;;;6.30;92.80;;;;;;5015945;28;20359;-76
2020/12/29 12:57:13;;;;;;;22.10;9.15;;;6.30;92.80;;;;;;5016669;28;20095;-76